sensor_id;sensor_type;location;lat;lon;timestamp;P1;durP1;ratioP1;P2;durP2;ratioP2
49193;SDS011;35029;50.804;12.866;2023-04-25T00:00:00;6.63;;;4.75;;
49193;SDS011;35029;50.804;12.866;2023-04-25T00:02:25;5.72;;;4.65;;
49193;SDS011;35029;50.804;12.866;2023-04-25T00:04:51;7.85;;;5.68;;
49193;SDS011;35029;50.804;12.866;2023-04-25T00:07:17;7.10;;;4.63;;
49193;SDS011;35029;50.804;12.866;2023-04-25T00:09:44;6.50;;;4.70;;
49193;SDS011;35029;50.804;12.866;2023-04-25T00:12:10;6.65;;;4.55;;
49193;SDS011;35029;50.804;12.866;2023-04-25T00:14:36;7.18;;;5.00;;
49193;SDS011;35029;50.804;12.866;2023-04-25T00:17:01;8.82;;;5.38;;
49193;SDS011;35029;50.804;12.866;2023-04-25T00:19:28;6.93;;;5.47;;
49193;SDS011;35029;50.804;12.866;2023-04-25T00:21:56;6.10;;;4.80;;
49193;SDS011;35029;50.804;12.866;2023-04-25T00:24:22;6.38;;;5.40;;
49193;SDS011;35029;50.804;12.866;2023-04-25T00:26:48;12.38;;;6.18;;
49193;SDS011;35029;50.804;12.866;2023-04-25T00:29:14;8.93;;;5.80;;
49193;SDS011;35029;50.804;12.866;2023-04-25T00:31:40;6.47;;;5.82;;
49193;SDS011;35029;50.804;12.866;2023-04-25T00:34:08;9.27;;;5.63;;
49193;SDS011;35029;50.804;12.866;2023-04-25T00:36:34;6.57;;;5.88;;
49193;SDS011;35029;50.804;12.866;2023-04-25T00:39:00;8.00;;;5.50;;
49193;SDS011;35029;50.804;12.866;2023-04-25T00:41:26;8.80;;;5.65;;
49193;SDS011;35029;50.804;12.866;2023-04-25T00:43:52;7.53;;;5.85;;
49193;SDS011;35029;50.804;12.866;2023-04-25T00:46:19;6.03;;;5.47;;
49193;SDS011;35029;50.804;12.866;2023-04-25T00:48:46;7.05;;;5.45;;
49193;SDS011;35029;50.804;12.866;2023-04-25T00:51:13;8.07;;;5.32;;
49193;SDS011;35029;50.804;12.866;2023-04-25T00:53:47;9.43;;;5.70;;
49193;SDS011;35029;50.804;12.866;2023-04-25T00:56:15;8.15;;;5.65;;
49193;SDS011;35029;50.804;12.866;2023-04-25T00:58:41;8.27;;;5.65;;
49193;SDS011;35029;50.804;12.866;2023-04-25T01:01:08;10.40;;;6.22;;
49193;SDS011;35029;50.804;12.866;2023-04-25T01:03:34;7.47;;;6.07;;
49193;SDS011;35029;50.804;12.866;2023-04-25T01:06:09;10.18;;;5.72;;
49193;SDS011;35029;50.804;12.866;2023-04-25T01:08:36;8.15;;;6.80;;
49193;SDS011;35029;50.804;12.866;2023-04-25T01:11:03;9.27;;;5.78;;
49193;SDS011;35029;50.804;12.866;2023-04-25T01:13:29;8.10;;;6.18;;
49193;SDS011;35029;50.804;12.866;2023-04-25T01:15:57;7.30;;;6.03;;
49193;SDS011;35029;50.804;12.866;2023-04-25T01:18:23;8.07;;;6.20;;
49193;SDS011;35029;50.804;12.866;2023-04-25T01:20:50;6.93;;;6.22;;
49193;SDS011;35029;50.804;12.866;2023-04-25T01:23:21;8.55;;;6.40;;
49193;SDS011;35029;50.804;12.866;2023-04-25T01:25:48;7.60;;;6.38;;
49193;SDS011;35029;50.804;12.866;2023-04-25T01:28:14;8.18;;;6.35;;
49193;SDS011;35029;50.804;12.866;2023-04-25T01:30:40;10.07;;;6.30;;
49193;SDS011;35029;50.804;12.866;2023-04-25T01:33:07;11.75;;;6.63;;
49193;SDS011;35029;50.804;12.866;2023-04-25T01:35:34;9.85;;;6.35;;
49193;SDS011;35029;50.804;12.866;2023-04-25T01:38:00;10.02;;;6.72;;
49193;SDS011;35029;50.804;12.866;2023-04-25T01:40:25;7.25;;;6.28;;
49193;SDS011;35029;50.804;12.866;2023-04-25T01:42:52;8.20;;;5.97;;
49193;SDS011;35029;50.804;12.866;2023-04-25T01:45:19;8.73;;;6.35;;
49193;SDS011;35029;50.804;12.866;2023-04-25T01:47:45;9.40;;;6.53;;
49193;SDS011;35029;50.804;12.866;2023-04-25T01:50:14;9.73;;;6.57;;
49193;SDS011;35029;50.804;12.866;2023-04-25T01:52:42;9.68;;;6.75;;
49193;SDS011;35029;50.804;12.866;2023-04-25T01:55:08;10.25;;;6.90;;
49193;SDS011;35029;50.804;12.866;2023-04-25T01:57:36;8.93;;;6.85;;
49193;SDS011;35029;50.804;12.866;2023-04-25T02:00:03;9.15;;;7.28;;
49193;SDS011;35029;50.804;12.866;2023-04-25T02:02:39;9.43;;;7.47;;
49193;SDS011;35029;50.804;12.866;2023-04-25T02:05:14;9.57;;;6.95;;
49193;SDS011;35029;50.804;12.866;2023-04-25T02:07:42;8.43;;;6.97;;
49193;SDS011;35029;50.804;12.866;2023-04-25T02:10:07;8.27;;;7.07;;
49193;SDS011;35029;50.804;12.866;2023-04-25T02:12:40;8.30;;;6.53;;
49193;SDS011;35029;50.804;12.866;2023-04-25T02:15:40;10.55;;;6.95;;
49193;SDS011;35029;50.804;12.866;2023-04-25T02:18:13;8.25;;;6.65;;
49193;SDS011;35029;50.804;12.866;2023-04-25T02:20:41;7.45;;;6.65;;
49193;SDS011;35029;50.804;12.866;2023-04-25T02:23:07;7.65;;;6.85;;
49193;SDS011;35029;50.804;12.866;2023-04-25T02:25:33;8.18;;;7.15;;
49193;SDS011;35029;50.804;12.866;2023-04-25T02:27:58;12.48;;;6.93;;
49193;SDS011;35029;50.804;12.866;2023-04-25T02:30:24;8.95;;;6.32;;
49193;SDS011;35029;50.804;12.866;2023-04-25T02:32:50;8.15;;;6.63;;
49193;SDS011;35029;50.804;12.866;2023-04-25T02:35:15;9.35;;;7.32;;
49193;SDS011;35029;50.804;12.866;2023-04-25T02:37:41;9.60;;;6.35;;
49193;SDS011;35029;50.804;12.866;2023-04-25T02:40:07;8.13;;;6.57;;
49193;SDS011;35029;50.804;12.866;2023-04-25T02:42:33;7.13;;;6.18;;
49193;SDS011;35029;50.804;12.866;2023-04-25T02:44:59;8.93;;;6.63;;
49193;SDS011;35029;50.804;12.866;2023-04-25T02:47:25;7.05;;;6.35;;
49193;SDS011;35029;50.804;12.866;2023-04-25T02:49:51;8.90;;;6.43;;
49193;SDS011;35029;50.804;12.866;2023-04-25T02:52:17;6.60;;;5.90;;
49193;SDS011;35029;50.804;12.866;2023-04-25T02:54:50;8.15;;;6.35;;
49193;SDS011;35029;50.804;12.866;2023-04-25T02:57:16;10.02;;;6.75;;
49193;SDS011;35029;50.804;12.866;2023-04-25T02:59:42;9.45;;;6.15;;
49193;SDS011;35029;50.804;12.866;2023-04-25T03:02:07;9.85;;;6.63;;
49193;SDS011;35029;50.804;12.866;2023-04-25T03:04:33;9.55;;;6.85;;
49193;SDS011;35029;50.804;12.866;2023-04-25T03:06:58;9.52;;;6.82;;
49193;SDS011;35029;50.804;12.866;2023-04-25T03:09:24;9.82;;;7.07;;
49193;SDS011;35029;50.804;12.866;2023-04-25T03:11:51;9.85;;;6.53;;
49193;SDS011;35029;50.804;12.866;2023-04-25T03:14:17;8.35;;;6.72;;
49193;SDS011;35029;50.804;12.866;2023-04-25T03:16:43;9.43;;;6.03;;
49193;SDS011;35029;50.804;12.866;2023-04-25T03:19:08;9.07;;;6.88;;
49193;SDS011;35029;50.804;12.866;2023-04-25T03:21:34;7.75;;;6.88;;
49193;SDS011;35029;50.804;12.866;2023-04-25T03:24:01;10.15;;;6.55;;
49193;SDS011;35029;50.804;12.866;2023-04-25T03:26:28;8.52;;;6.30;;
49193;SDS011;35029;50.804;12.866;2023-04-25T03:28:54;10.85;;;7.68;;
49193;SDS011;35029;50.804;12.866;2023-04-25T03:31:20;8.70;;;6.63;;
49193;SDS011;35029;50.804;12.866;2023-04-25T03:33:45;9.25;;;7.40;;
49193;SDS011;35029;50.804;12.866;2023-04-25T03:36:11;11.88;;;8.48;;
49193;SDS011;35029;50.804;12.866;2023-04-25T03:38:37;17.30;;;12.68;;
49193;SDS011;35029;50.804;12.866;2023-04-25T03:41:04;9.73;;;7.57;;
49193;SDS011;35029;50.804;12.866;2023-04-25T03:43:53;13.80;;;7.82;;
49193;SDS011;35029;50.804;12.866;2023-04-25T03:46:18;9.73;;;7.38;;
49193;SDS011;35029;50.804;12.866;2023-04-25T03:48:45;8.98;;;7.15;;
49193;SDS011;35029;50.804;12.866;2023-04-25T03:51:17;8.75;;;7.55;;
49193;SDS011;35029;50.804;12.866;2023-04-25T03:53:43;7.85;;;6.90;;
49193;SDS011;35029;50.804;12.866;2023-04-25T03:56:32;9.10;;;7.05;;
49193;SDS011;35029;50.804;12.866;2023-04-25T03:59:05;10.80;;;7.82;;
49193;SDS011;35029;50.804;12.866;2023-04-25T04:01:31;8.60;;;7.63;;
49193;SDS011;35029;50.804;12.866;2023-04-25T04:03:57;10.30;;;8.07;;
49193;SDS011;35029;50.804;12.866;2023-04-25T04:06:23;11.35;;;7.93;;
49193;SDS011;35029;50.804;12.866;2023-04-25T04:08:55;11.50;;;7.97;;
49193;SDS011;35029;50.804;12.866;2023-04-25T04:11:23;11.60;;;7.45;;
49193;SDS011;35029;50.804;12.866;2023-04-25T04:13:48;9.98;;;8.02;;
49193;SDS011;35029;50.804;12.866;2023-04-25T04:16:14;12.15;;;7.53;;
49193;SDS011;35029;50.804;12.866;2023-04-25T04:18:40;8.57;;;7.05;;
49193;SDS011;35029;50.804;12.866;2023-04-25T04:21:06;11.00;;;7.20;;
49193;SDS011;35029;50.804;12.866;2023-04-25T04:23:34;9.20;;;6.85;;
49193;SDS011;35029;50.804;12.866;2023-04-25T04:26:01;7.28;;;6.57;;
49193;SDS011;35029;50.804;12.866;2023-04-25T04:28:26;12.82;;;7.43;;
49193;SDS011;35029;50.804;12.866;2023-04-25T04:31:18;9.75;;;6.30;;
49193;SDS011;35029;50.804;12.866;2023-04-25T04:33:45;8.02;;;6.60;;
49193;SDS011;35029;50.804;12.866;2023-04-25T04:36:13;7.93;;;5.93;;
49193;SDS011;35029;50.804;12.866;2023-04-25T04:38:41;8.18;;;6.22;;
49193;SDS011;35029;50.804;12.866;2023-04-25T04:41:10;8.55;;;6.90;;
49193;SDS011;35029;50.804;12.866;2023-04-25T04:43:58;7.72;;;6.60;;
49193;SDS011;35029;50.804;12.866;2023-04-25T04:46:42;7.82;;;6.13;;
49193;SDS011;35029;50.804;12.866;2023-04-25T04:49:32;8.65;;;5.65;;
49193;SDS011;35029;50.804;12.866;2023-04-25T04:52:05;10.63;;;5.82;;
49193;SDS011;35029;50.804;12.866;2023-04-25T04:55:00;8.48;;;5.97;;
49193;SDS011;35029;50.804;12.866;2023-04-25T04:58:04;7.78;;;5.68;;
49193;SDS011;35029;50.804;12.866;2023-04-25T05:00:51;8.00;;;5.57;;
49193;SDS011;35029;50.804;12.866;2023-04-25T05:03:33;9.05;;;4.85;;
49193;SDS011;35029;50.804;12.866;2023-04-25T05:06:08;11.10;;;5.30;;
49193;SDS011;35029;50.804;12.866;2023-04-25T05:09:11;7.43;;;5.63;;
49193;SDS011;35029;50.804;12.866;2023-04-25T05:11:58;7.50;;;5.15;;
49193;SDS011;35029;50.804;12.866;2023-04-25T05:14:33;7.75;;;5.00;;
49193;SDS011;35029;50.804;12.866;2023-04-25T05:17:07;8.48;;;5.57;;
49193;SDS011;35029;50.804;12.866;2023-04-25T05:19:43;11.98;;;4.97;;
49193;SDS011;35029;50.804;12.866;2023-04-25T05:22:27;13.50;;;5.30;;
49193;SDS011;35029;50.804;12.866;2023-04-25T05:25:32;15.32;;;4.90;;
49193;SDS011;35029;50.804;12.866;2023-04-25T05:28:20;9.07;;;5.22;;
49193;SDS011;35029;50.804;12.866;2023-04-25T05:31:17;9.13;;;4.90;;
49193;SDS011;35029;50.804;12.866;2023-04-25T05:33:49;8.27;;;5.10;;
49193;SDS011;35029;50.804;12.866;2023-04-25T05:36:15;8.07;;;5.22;;
49193;SDS011;35029;50.804;12.866;2023-04-25T05:38:41;13.05;;;5.75;;
49193;SDS011;35029;50.804;12.866;2023-04-25T05:41:13;8.45;;;4.85;;
49193;SDS011;35029;50.804;12.866;2023-04-25T05:44:08;6.22;;;4.55;;
49193;SDS011;35029;50.804;12.866;2023-04-25T05:46:47;8.80;;;4.20;;
49193;SDS011;35029;50.804;12.866;2023-04-25T05:49:40;6.03;;;4.20;;
49193;SDS011;35029;50.804;12.866;2023-04-25T05:52:19;11.45;;;4.40;;
49193;SDS011;35029;50.804;12.866;2023-04-25T05:54:56;8.80;;;4.53;;
49193;SDS011;35029;50.804;12.866;2023-04-25T05:57:25;6.60;;;4.75;;
49193;SDS011;35029;50.804;12.866;2023-04-25T06:00:01;8.73;;;4.68;;
49193;SDS011;35029;50.804;12.866;2023-04-25T06:02:47;8.77;;;4.68;;
49193;SDS011;35029;50.804;12.866;2023-04-25T06:05:14;8.45;;;4.85;;
49193;SDS011;35029;50.804;12.866;2023-04-25T06:07:39;14.77;;;5.07;;
49193;SDS011;35029;50.804;12.866;2023-04-25T06:10:05;8.63;;;4.50;;
49193;SDS011;35029;50.804;12.866;2023-04-25T06:12:34;7.60;;;4.00;;
49193;SDS011;35029;50.804;12.866;2023-04-25T06:15:02;8.90;;;4.45;;
49193;SDS011;35029;50.804;12.866;2023-04-25T06:17:30;9.55;;;4.35;;
49193;SDS011;35029;50.804;12.866;2023-04-25T06:19:56;7.35;;;4.78;;
49193;SDS011;35029;50.804;12.866;2023-04-25T06:22:22;6.60;;;4.47;;
49193;SDS011;35029;50.804;12.866;2023-04-25T06:24:48;9.75;;;5.50;;
49193;SDS011;35029;50.804;12.866;2023-04-25T06:27:13;8.85;;;4.82;;
49193;SDS011;35029;50.804;12.866;2023-04-25T06:29:39;6.88;;;4.07;;
49193;SDS011;35029;50.804;12.866;2023-04-25T06:32:05;7.15;;;5.00;;
49193;SDS011;35029;50.804;12.866;2023-04-25T06:34:31;8.48;;;4.75;;
49193;SDS011;35029;50.804;12.866;2023-04-25T06:36:58;6.78;;;4.57;;
49193;SDS011;35029;50.804;12.866;2023-04-25T06:39:24;7.53;;;5.18;;
49193;SDS011;35029;50.804;12.866;2023-04-25T06:41:50;9.73;;;5.32;;
49193;SDS011;35029;50.804;12.866;2023-04-25T06:44:34;8.73;;;5.15;;
49193;SDS011;35029;50.804;12.866;2023-04-25T06:47:02;8.13;;;4.65;;
49193;SDS011;35029;50.804;12.866;2023-04-25T06:49:28;10.13;;;4.35;;
49193;SDS011;35029;50.804;12.866;2023-04-25T06:51:54;8.07;;;4.63;;
49193;SDS011;35029;50.804;12.866;2023-04-25T06:54:19;7.65;;;4.40;;
49193;SDS011;35029;50.804;12.866;2023-04-25T06:56:55;8.02;;;4.82;;
49193;SDS011;35029;50.804;12.866;2023-04-25T06:59:21;8.00;;;5.13;;
49193;SDS011;35029;50.804;12.866;2023-04-25T07:01:47;12.70;;;5.40;;
49193;SDS011;35029;50.804;12.866;2023-04-25T07:04:16;9.65;;;5.22;;
49193;SDS011;35029;50.804;12.866;2023-04-25T07:09:16;10.15;;;4.85;;
49193;SDS011;35029;50.804;12.866;2023-04-25T07:11:45;7.00;;;4.25;;
49193;SDS011;35029;50.804;12.866;2023-04-25T07:14:11;5.63;;;4.15;;
49193;SDS011;35029;50.804;12.866;2023-04-25T07:16:36;6.70;;;4.78;;
49193;SDS011;35029;50.804;12.866;2023-04-25T07:19:02;6.88;;;4.20;;
49193;SDS011;35029;50.804;12.866;2023-04-25T07:21:28;8.30;;;4.43;;
49193;SDS011;35029;50.804;12.866;2023-04-25T07:23:54;4.95;;;3.60;;
49193;SDS011;35029;50.804;12.866;2023-04-25T07:26:26;8.13;;;4.38;;
49193;SDS011;35029;50.804;12.866;2023-04-25T07:29:30;10.43;;;4.68;;
49193;SDS011;35029;50.804;12.866;2023-04-25T07:31:58;13.93;;;5.47;;
49193;SDS011;35029;50.804;12.866;2023-04-25T07:34:24;6.45;;;4.47;;
49193;SDS011;35029;50.804;12.866;2023-04-25T07:36:49;7.75;;;4.05;;
49193;SDS011;35029;50.804;12.866;2023-04-25T07:39:16;6.70;;;4.55;;
49193;SDS011;35029;50.804;12.866;2023-04-25T07:41:42;13.77;;;4.97;;
49193;SDS011;35029;50.804;12.866;2023-04-25T07:44:12;10.32;;;5.05;;
49193;SDS011;35029;50.804;12.866;2023-04-25T07:46:39;6.88;;;3.70;;
49193;SDS011;35029;50.804;12.866;2023-04-25T07:49:05;8.07;;;4.00;;
49193;SDS011;35029;50.804;12.866;2023-04-25T07:51:31;7.78;;;3.95;;
49193;SDS011;35029;50.804;12.866;2023-04-25T07:54:01;7.35;;;3.75;;
49193;SDS011;35029;50.804;12.866;2023-04-25T07:56:27;6.15;;;3.22;;
49193;SDS011;35029;50.804;12.866;2023-04-25T07:58:53;10.70;;;3.33;;
49193;SDS011;35029;50.804;12.866;2023-04-25T08:01:19;11.63;;;3.70;;
49193;SDS011;35029;50.804;12.866;2023-04-25T08:03:52;6.88;;;3.85;;
49193;SDS011;35029;50.804;12.866;2023-04-25T08:06:25;5.70;;;3.72;;
49193;SDS011;35029;50.804;12.866;2023-04-25T08:09:01;9.40;;;3.80;;
49193;SDS011;35029;50.804;12.866;2023-04-25T08:11:33;6.68;;;3.28;;
49193;SDS011;35029;50.804;12.866;2023-04-25T08:13:59;12.38;;;4.10;;
49193;SDS011;35029;50.804;12.866;2023-04-25T08:16:25;8.00;;;4.25;;
49193;SDS011;35029;50.804;12.866;2023-04-25T08:18:51;7.88;;;4.43;;
49193;SDS011;35029;50.804;12.866;2023-04-25T08:21:16;7.72;;;3.80;;
49193;SDS011;35029;50.804;12.866;2023-04-25T08:23:43;4.63;;;3.35;;
49193;SDS011;35029;50.804;12.866;2023-04-25T08:26:14;7.97;;;3.78;;
49193;SDS011;35029;50.804;12.866;2023-04-25T08:28:41;8.57;;;4.47;;
49193;SDS011;35029;50.804;12.866;2023-04-25T08:31:07;9.75;;;4.80;;
49193;SDS011;35029;50.804;12.866;2023-04-25T08:33:42;7.95;;;4.97;;
49193;SDS011;35029;50.804;12.866;2023-04-25T08:36:19;8.45;;;4.60;;
49193;SDS011;35029;50.804;12.866;2023-04-25T08:38:45;8.00;;;5.10;;
49193;SDS011;35029;50.804;12.866;2023-04-25T08:41:12;12.40;;;5.72;;
49193;SDS011;35029;50.804;12.866;2023-04-25T08:43:39;7.32;;;5.40;;
49193;SDS011;35029;50.804;12.866;2023-04-25T08:46:07;11.43;;;5.97;;
49193;SDS011;35029;50.804;12.866;2023-04-25T08:48:53;11.10;;;5.10;;
49193;SDS011;35029;50.804;12.866;2023-04-25T08:53:51;7.82;;;4.90;;
49193;SDS011;35029;50.804;12.866;2023-04-25T08:56:17;5.85;;;4.50;;
49193;SDS011;35029;50.804;12.866;2023-04-25T08:58:46;9.88;;;4.65;;
49193;SDS011;35029;50.804;12.866;2023-04-25T09:01:14;8.93;;;5.28;;
49193;SDS011;35029;50.804;12.866;2023-04-25T09:03:46;11.25;;;7.03;;
49193;SDS011;35029;50.804;12.866;2023-04-25T09:06:13;13.38;;;8.15;;
49193;SDS011;35029;50.804;12.866;2023-04-25T09:08:38;12.20;;;7.85;;
49193;SDS011;35029;50.804;12.866;2023-04-25T09:11:08;7.80;;;4.53;;
49193;SDS011;35029;50.804;12.866;2023-04-25T09:13:34;8.23;;;4.20;;
49193;SDS011;35029;50.804;12.866;2023-04-25T09:16:20;10.65;;;4.38;;
49193;SDS011;35029;50.804;12.866;2023-04-25T09:19:20;12.52;;;4.28;;
49193;SDS011;35029;50.804;12.866;2023-04-25T09:21:48;8.10;;;3.90;;
49193;SDS011;35029;50.804;12.866;2023-04-25T09:24:41;7.95;;;3.75;;
49193;SDS011;35029;50.804;12.866;2023-04-25T09:27:11;7.57;;;4.15;;
49193;SDS011;35029;50.804;12.866;2023-04-25T09:29:39;6.90;;;4.18;;
49193;SDS011;35029;50.804;12.866;2023-04-25T09:32:13;7.20;;;4.18;;
49193;SDS011;35029;50.804;12.866;2023-04-25T09:34:40;5.30;;;4.15;;
49193;SDS011;35029;50.804;12.866;2023-04-25T09:37:16;8.65;;;3.42;;
49193;SDS011;35029;50.804;12.866;2023-04-25T09:40:09;7.97;;;4.28;;
49193;SDS011;35029;50.804;12.866;2023-04-25T09:42:49;7.80;;;4.60;;
49193;SDS011;35029;50.804;12.866;2023-04-25T09:45:15;8.68;;;5.22;;
49193;SDS011;35029;50.804;12.866;2023-04-25T09:47:42;5.10;;;4.30;;
49193;SDS011;35029;50.804;12.866;2023-04-25T09:50:13;12.00;;;4.72;;
49193;SDS011;35029;50.804;12.866;2023-04-25T09:52:42;7.85;;;4.45;;
49193;SDS011;35029;50.804;12.866;2023-04-25T09:55:17;9.15;;;5.30;;
49193;SDS011;35029;50.804;12.866;2023-04-25T09:57:45;9.40;;;5.07;;
49193;SDS011;35029;50.804;12.866;2023-04-25T10:00:18;14.63;;;5.20;;
49193;SDS011;35029;50.804;12.866;2023-04-25T10:02:45;5.22;;;4.47;;
49193;SDS011;35029;50.804;12.866;2023-04-25T10:05:36;9.30;;;5.65;;
49193;SDS011;35029;50.804;12.866;2023-04-25T10:08:11;9.55;;;5.55;;
49193;SDS011;35029;50.804;12.866;2023-04-25T10:10:38;9.50;;;6.05;;
49193;SDS011;35029;50.804;12.866;2023-04-25T10:13:05;9.23;;;5.40;;
49193;SDS011;35029;50.804;12.866;2023-04-25T10:15:34;7.13;;;5.10;;
49193;SDS011;35029;50.804;12.866;2023-04-25T10:18:01;7.20;;;5.28;;
49193;SDS011;35029;50.804;12.866;2023-04-25T10:20:28;8.15;;;5.10;;
49193;SDS011;35029;50.804;12.866;2023-04-25T10:22:55;7.18;;;5.07;;
49193;SDS011;35029;50.804;12.866;2023-04-25T10:25:38;8.90;;;5.40;;
49193;SDS011;35029;50.804;12.866;2023-04-25T10:28:05;6.50;;;4.75;;
49193;SDS011;35029;50.804;12.866;2023-04-25T10:30:31;6.63;;;5.00;;
49193;SDS011;35029;50.804;12.866;2023-04-25T10:32:56;11.65;;;5.13;;
49193;SDS011;35029;50.804;12.866;2023-04-25T10:35:25;9.68;;;6.30;;
49193;SDS011;35029;50.804;12.866;2023-04-25T10:40:26;9.07;;;5.75;;
49193;SDS011;35029;50.804;12.866;2023-04-25T10:42:52;17.98;;;7.97;;
49193;SDS011;35029;50.804;12.866;2023-04-25T10:45:19;11.50;;;8.45;;
49193;SDS011;35029;50.804;12.866;2023-04-25T10:47:45;12.55;;;8.48;;
49193;SDS011;35029;50.804;12.866;2023-04-25T10:50:11;10.82;;;8.63;;
49193;SDS011;35029;50.804;12.866;2023-04-25T10:52:40;11.05;;;7.72;;
49193;SDS011;35029;50.804;12.866;2023-04-25T10:55:05;9.18;;;7.45;;
49193;SDS011;35029;50.804;12.866;2023-04-25T11:00:11;16.83;;;7.93;;
49193;SDS011;35029;50.804;12.866;2023-04-25T11:02:38;8.20;;;6.30;;
49193;SDS011;35029;50.804;12.866;2023-04-25T11:05:35;10.77;;;7.88;;
49193;SDS011;35029;50.804;12.866;2023-04-25T11:08:02;12.07;;;7.15;;
49193;SDS011;35029;50.804;12.866;2023-04-25T11:10:36;11.48;;;7.97;;
49193;SDS011;35029;50.804;12.866;2023-04-25T11:13:01;9.68;;;7.57;;
49193;SDS011;35029;50.804;12.866;2023-04-25T11:15:27;12.77;;;8.02;;
49193;SDS011;35029;50.804;12.866;2023-04-25T11:17:53;9.63;;;6.45;;
49193;SDS011;35029;50.804;12.866;2023-04-25T11:20:20;8.05;;;6.18;;
49193;SDS011;35029;50.804;12.866;2023-04-25T11:22:46;11.77;;;7.10;;
49193;SDS011;35029;50.804;12.866;2023-04-25T11:25:13;14.23;;;7.90;;
49193;SDS011;35029;50.804;12.866;2023-04-25T11:27:50;12.90;;;8.20;;
49193;SDS011;35029;50.804;12.866;2023-04-25T11:30:21;8.93;;;7.03;;
49193;SDS011;35029;50.804;12.866;2023-04-25T11:32:47;10.77;;;7.03;;
49193;SDS011;35029;50.804;12.866;2023-04-25T11:35:13;8.60;;;6.55;;
49193;SDS011;35029;50.804;12.866;2023-04-25T11:37:39;9.57;;;6.55;;
49193;SDS011;35029;50.804;12.866;2023-04-25T11:40:06;10.27;;;6.10;;
49193;SDS011;35029;50.804;12.866;2023-04-25T11:42:33;10.77;;;6.28;;
49193;SDS011;35029;50.804;12.866;2023-04-25T11:44:59;12.05;;;7.28;;
49193;SDS011;35029;50.804;12.866;2023-04-25T11:47:29;11.38;;;7.00;;
49193;SDS011;35029;50.804;12.866;2023-04-25T11:49:55;15.45;;;7.35;;
49193;SDS011;35029;50.804;12.866;2023-04-25T11:52:22;11.32;;;6.35;;
49193;SDS011;35029;50.804;12.866;2023-04-25T11:54:48;9.07;;;6.40;;
49193;SDS011;35029;50.804;12.866;2023-04-25T11:57:13;10.65;;;6.53;;
49193;SDS011;35029;50.804;12.866;2023-04-25T11:59:39;10.77;;;6.53;;
49193;SDS011;35029;50.804;12.866;2023-04-25T12:02:04;10.63;;;6.15;;
49193;SDS011;35029;50.804;12.866;2023-04-25T12:04:32;9.32;;;6.38;;
49193;SDS011;35029;50.804;12.866;2023-04-25T12:06:57;14.82;;;6.18;;
49193;SDS011;35029;50.804;12.866;2023-04-25T12:09:29;16.50;;;6.90;;
49193;SDS011;35029;50.804;12.866;2023-04-25T12:14:24;7.95;;;5.50;;
49193;SDS011;35029;50.804;12.866;2023-04-25T12:16:52;13.98;;;6.60;;
49193;SDS011;35029;50.804;12.866;2023-04-25T12:19:20;9.63;;;4.57;;
49193;SDS011;35029;50.804;12.866;2023-04-25T12:21:46;12.77;;;4.75;;
49193;SDS011;35029;50.804;12.866;2023-04-25T12:24:13;9.07;;;4.65;;
49193;SDS011;35029;50.804;12.866;2023-04-25T12:29:22;13.55;;;4.82;;
49193;SDS011;35029;50.804;12.866;2023-04-25T12:31:50;13.00;;;4.97;;
49193;SDS011;35029;50.804;12.866;2023-04-25T12:34:17;10.50;;;5.13;;
49193;SDS011;35029;50.804;12.866;2023-04-25T12:36:43;11.65;;;5.80;;
49193;SDS011;35029;50.804;12.866;2023-04-25T12:39:14;14.25;;;5.70;;
49193;SDS011;35029;50.804;12.866;2023-04-25T12:41:43;13.90;;;5.72;;
49193;SDS011;35029;50.804;12.866;2023-04-25T12:44:09;11.48;;;6.00;;
49193;SDS011;35029;50.804;12.866;2023-04-25T12:46:36;10.80;;;5.68;;
49193;SDS011;35029;50.804;12.866;2023-04-25T12:49:02;10.52;;;5.85;;
49193;SDS011;35029;50.804;12.866;2023-04-25T12:51:29;10.75;;;5.43;;
49193;SDS011;35029;50.804;12.866;2023-04-25T12:53:54;9.18;;;4.75;;
49193;SDS011;35029;50.804;12.866;2023-04-25T12:56:20;10.13;;;4.55;;
49193;SDS011;35029;50.804;12.866;2023-04-25T12:58:46;7.15;;;4.43;;
49193;SDS011;35029;50.804;12.866;2023-04-25T13:01:13;9.25;;;4.35;;
49193;SDS011;35029;50.804;12.866;2023-04-25T13:03:39;6.88;;;4.70;;
49193;SDS011;35029;50.804;12.866;2023-04-25T13:06:05;7.82;;;3.88;;
49193;SDS011;35029;50.804;12.866;2023-04-25T13:08:32;10.13;;;4.45;;
49193;SDS011;35029;50.804;12.866;2023-04-25T13:10:58;9.70;;;4.35;;
49193;SDS011;35029;50.804;12.866;2023-04-25T13:13:25;5.60;;;3.67;;
49193;SDS011;35029;50.804;12.866;2023-04-25T13:15:52;6.65;;;4.03;;
49193;SDS011;35029;50.804;12.866;2023-04-25T13:18:18;6.10;;;4.10;;
49193;SDS011;35029;50.804;12.866;2023-04-25T13:20:44;12.23;;;4.38;;
49193;SDS011;35029;50.804;12.866;2023-04-25T13:23:11;6.88;;;4.07;;
49193;SDS011;35029;50.804;12.866;2023-04-25T13:25:37;7.72;;;4.35;;
49193;SDS011;35029;50.804;12.866;2023-04-25T13:28:02;6.78;;;3.88;;
49193;SDS011;35029;50.804;12.866;2023-04-25T13:30:28;8.32;;;3.88;;
49193;SDS011;35029;50.804;12.866;2023-04-25T13:32:54;7.90;;;3.28;;
49193;SDS011;35029;50.804;12.866;2023-04-25T13:35:22;8.57;;;3.30;;
49193;SDS011;35029;50.804;12.866;2023-04-25T13:37:48;7.40;;;4.47;;
49193;SDS011;35029;50.804;12.866;2023-04-25T13:40:13;7.65;;;4.20;;
49193;SDS011;35029;50.804;12.866;2023-04-25T13:42:39;8.00;;;4.38;;
49193;SDS011;35029;50.804;12.866;2023-04-25T13:45:06;8.77;;;4.07;;
49193;SDS011;35029;50.804;12.866;2023-04-25T13:47:32;10.18;;;4.03;;
49193;SDS011;35029;50.804;12.866;2023-04-25T13:49:58;10.90;;;4.80;;
49193;SDS011;35029;50.804;12.866;2023-04-25T13:52:24;7.32;;;4.03;;
49193;SDS011;35029;50.804;12.866;2023-04-25T13:54:51;10.65;;;3.50;;
49193;SDS011;35029;50.804;12.866;2023-04-25T13:57:16;9.52;;;4.18;;
49193;SDS011;35029;50.804;12.866;2023-04-25T13:59:43;8.15;;;3.50;;
49193;SDS011;35029;50.804;12.866;2023-04-25T14:02:08;9.93;;;3.85;;
49193;SDS011;35029;50.804;12.866;2023-04-25T14:04:34;7.78;;;4.07;;
49193;SDS011;35029;50.804;12.866;2023-04-25T14:07:00;10.30;;;3.55;;
49193;SDS011;35029;50.804;12.866;2023-04-25T14:09:27;12.05;;;3.92;;
49193;SDS011;35029;50.804;12.866;2023-04-25T14:11:53;15.05;;;4.70;;
49193;SDS011;35029;50.804;12.866;2023-04-25T14:14:19;8.75;;;3.47;;
49193;SDS011;35029;50.804;12.866;2023-04-25T14:16:45;12.15;;;3.78;;
49193;SDS011;35029;50.804;12.866;2023-04-25T14:19:13;10.75;;;4.10;;
49193;SDS011;35029;50.804;12.866;2023-04-25T14:21:39;8.93;;;4.15;;
49193;SDS011;35029;50.804;12.866;2023-04-25T14:24:05;6.35;;;3.67;;
49193;SDS011;35029;50.804;12.866;2023-04-25T14:26:33;8.40;;;4.18;;
49193;SDS011;35029;50.804;12.866;2023-04-25T14:28:59;7.55;;;3.90;;
49193;SDS011;35029;50.804;12.866;2023-04-25T14:31:25;8.43;;;4.93;;
49193;SDS011;35029;50.804;12.866;2023-04-25T14:33:51;8.43;;;4.00;;
49193;SDS011;35029;50.804;12.866;2023-04-25T14:36:16;7.65;;;3.92;;
49193;SDS011;35029;50.804;12.866;2023-04-25T14:38:42;12.55;;;4.18;;
49193;SDS011;35029;50.804;12.866;2023-04-25T14:41:08;9.70;;;4.43;;
49193;SDS011;35029;50.804;12.866;2023-04-25T14:43:34;14.68;;;5.70;;
49193;SDS011;35029;50.804;12.866;2023-04-25T14:46:01;12.32;;;4.22;;
49193;SDS011;35029;50.804;12.866;2023-04-25T14:48:27;11.13;;;4.43;;
49193;SDS011;35029;50.804;12.866;2023-04-25T14:50:54;9.80;;;3.70;;
49193;SDS011;35029;50.804;12.866;2023-04-25T14:53:21;16.75;;;5.47;;
49193;SDS011;35029;50.804;12.866;2023-04-25T14:55:47;12.80;;;5.15;;
49193;SDS011;35029;50.804;12.866;2023-04-25T14:58:13;12.32;;;4.93;;